Time;durP1;ratioP1;P1;durP2;ratioP2;P2;SDS_P1;SDS_P2;PMS_P1;PMS_P2;Temp;Humidity;BMP_temperature;BMP_pressure;BME280_temperature;BME280_humidity;BME280_pressure;Samples;Min_cycle;Max_cycle;Signal;HPM_P1;HPM_P2
2021/12/25 00:02:05;;;;;;;11.25;5.43;;;;;;;;;;5035009;28;20396;-65
2021/12/25 00:04:50;;;;;;;9.43;5.00;;;;;;;;;;5050535;28;20435;-64
2021/12/25 00:07:35;;;;;;;14.75;7.13;;;;;;;;;;5048824;28;20035;-63
2021/12/25 00:10:20;;;;;;;10.05;5.90;;;;;;;;;;5056679;28;20032;-62
2021/12/25 00:13:06;;;;;;;12.57;7.20;;;;;;;;;;5023068;28;20028;-65
2021/12/25 00:15:51;;;;;;;11.52;6.80;;;;;;;;;;5049889;28;20400;-65
2021/12/25 00:18:38;;;;;;;10.23;5.30;;;;;;;;;;5049629;28;20029;-65
2021/12/25 00:21:24;;;;;;;9.32;5.38;;;;;;;;;;5040567;28;20021;-69
2021/12/25 00:24:09;;;;;;;13.48;7.47;;;;;;;;;;5049651;28;20561;-69
2021/12/25 00:27:02;;;;;;;16.35;7.00;;;;;;;;;;5062262;28;20212;-68
2021/12/25 00:29:57;;;;;;;13.82;7.13;;;;;;;;;;5035445;28;20490;-68
2021/12/25 00:32:51;;;;;;;10.98;7.25;;;;;;;;;;5034592;28;20033;-69
2021/12/25 00:35:37;;;;;;;9.88;5.30;;;;;;;;;;5022077;28;20507;-65
2021/12/25 00:38:22;;;;;;;10.70;6.50;;;;;;;;;;5047785;28;20028;-66
2021/12/25 00:41:08;;;;;;;10.13;5.90;;;;;;;;;;5043389;28;20114;-65
2021/12/25 00:43:53;;;;;;;12.10;6.65;;;;;;;;;;5028324;28;20424;-66
2021/12/25 00:46:38;;;;;;;9.25;6.00;;;;;;;;;;5049420;28;20021;-69
2021/12/25 00:49:24;;;;;;;8.18;5.28;;;;;;;;;;5047713;28;20542;-66
2021/12/25 00:52:10;;;;;;;13.77;6.38;;;;;;;;;;5056432;28;20048;-66
2021/12/25 00:54:55;;;;;;;11.10;7.00;;;;;;;;;;5048432;28;20033;-62
2021/12/25 00:57:40;;;;;;;9.32;5.65;;;;;;;;;;5035006;28;20025;-66
2021/12/25 01:00:26;;;;;;;9.20;6.38;;;;;;;;;;5015327;28;20123;-65
2021/12/25 01:03:11;;;;;;;11.48;6.40;;;;;;;;;;5029976;28;20021;-65
2021/12/25 01:05:56;;;;;;;15.95;7.40;;;;;;;;;;5049160;28;20411;-67
2021/12/25 01:08:42;;;;;;;11.27;6.50;;;;;;;;;;5047449;28;20531;-66
2021/12/25 01:11:29;;;;;;;11.50;6.65;;;;;;;;;;5064459;28;20377;-66
2021/12/25 01:14:30;;;;;;;12.48;7.03;;;;;;;;;;5039012;28;20100;-69
2021/12/25 01:26:32;;;;;;;10.25;6.65;;;;;;;;;;5035547;28;20035;-67
2021/12/25 01:29:32;;;;;;;11.82;7.47;;;;;;;;;;5020683;28;20027;-66
2021/12/25 01:38:55;;;;;;;11.20;6.78;;;;;;;;;;5000354;28;20128;-64
2021/12/25 01:42:01;;;;;;;11.65;5.20;;;;;;;;;;5031094;28;20037;-63
2021/12/25 01:47:52;;;;;;;16.38;7.43;;;;;;;;;;5047773;28;20024;-64
2021/12/25 01:50:37;;;;;;;10.20;6.35;;;;;;;;;;5033510;28;20037;-64
2021/12/25 01:53:23;;;;;;;11.93;5.82;;;;;;;;;;5028151;28;20514;-63
2021/12/25 01:56:08;;;;;;;11.45;6.97;;;;;;;;;;5043489;28;20320;-63
2021/12/25 01:58:53;;;;;;;11.40;6.38;;;;;;;;;;5038112;28;20063;-62
2021/12/25 02:01:38;;;;;;;12.32;6.68;;;;;;;;;;5033807;28;20033;-63
2021/12/25 02:04:24;;;;;;;12.07;7.00;;;;;;;;;;5037737;28;20033;-61
2021/12/25 02:07:09;;;;;;;10.75;6.47;;;;;;;;;;5036885;28;20033;-65
2021/12/25 02:09:55;;;;;;;14.15;7.30;;;;;;;;;;5040902;28;20613;-64
2021/12/25 02:12:40;;;;;;;11.55;6.85;;;;;;;;;;5052594;28;20033;-60
2021/12/25 02:15:27;;;;;;;11.63;7.25;;;;;;;;;;5051241;28;20033;-60
2021/12/25 02:18:19;;;;;;;14.35;8.10;;;;;;;;;;5022323;28;20017;-61
2021/12/25 02:21:12;;;;;;;11.02;6.85;;;;;;;;;;5051264;28;20040;-61
2021/12/25 02:23:57;;;;;;;8.18;5.25;;;;;;;;;;5037056;28;20119;-63
2021/12/25 02:26:44;;;;;;;12.02;7.35;;;;;;;;;;5061625;28;20036;-67
2021/12/25 02:29:29;;;;;;;12.55;6.75;;;;;;;;;;5057275;28;20077;-66
2021/12/25 02:32:14;;;;;;;14.25;7.97;;;;;;;;;;5033776;28;20029;-67
2021/12/25 02:35:00;;;;;;;14.68;7.55;;;;;;;;;;5051217;28;20077;-66
2021/12/25 02:37:45;;;;;;;11.23;6.43;;;;;;;;;;5027469;28;20438;-65
2021/12/25 02:40:31;;;;;;;11.63;6.35;;;;;;;;;;5031612;28;20033;-65
2021/12/25 02:43:17;;;;;;;15.25;8.63;;;;;;;;;;5028445;28;20040;-66
2021/12/25 02:46:04;;;;;;;11.48;6.80;;;;;;;;;;5038064;28;20053;-68
2021/12/25 02:48:49;;;;;;;19.10;7.70;;;;;;;;;;5035409;28;20033;-66
2021/12/25 02:51:34;;;;;;;13.27;7.20;;;;;;;;;;5050817;28;20123;-68
2021/12/25 02:54:19;;;;;;;15.07;7.50;;;;;;;;;;5036184;28;20017;-66
2021/12/25 02:57:05;;;;;;;12.70;8.38;;;;;;;;;;5036581;28;20423;-66
2021/12/25 02:59:50;;;;;;;16.02;8.75;;;;;;;;;;5040773;28;20092;-67
2021/12/25 03:02:35;;;;;;;15.65;8.90;;;;;;;;;;5037738;28;20025;-67
2021/12/25 03:05:20;;;;;;;15.45;8.80;;;;;;;;;;5016087;28;20025;-64
2021/12/25 03:08:07;;;;;;;10.40;5.80;;;;;;;;;;5017866;28;20512;-64
2021/12/25 03:10:53;;;;;;;15.60;8.50;;;;;;;;;;5050146;28;20044;-65
2021/12/25 03:13:56;;;;;;;12.07;6.63;;;;;;;;;;5045487;28;20546;-68
2021/12/25 03:16:42;;;;;;;11.15;6.57;;;;;;;;;;5036881;28;20028;-67
2021/12/25 03:19:32;;;;;;;13.35;8.40;;;;;;;;;;5032354;28;20032;-66
2021/12/25 03:22:17;;;;;;;12.18;8.23;;;;;;;;;;5033144;28;20081;-67
2021/12/25 03:25:04;;;;;;;12.23;7.03;;;;;;;;;;5031793;28;20112;-65
2021/12/25 03:27:51;;;;;;;11.93;7.53;;;;;;;;;;5044278;28;20037;-65
2021/12/25 03:30:39;;;;;;;12.55;8.10;;;;;;;;;;5035269;28;20566;-66
2021/12/25 03:33:25;;;;;;;15.10;8.00;;;;;;;;;;5042202;28;20037;-67
2021/12/25 03:36:10;;;;;;;13.02;8.07;;;;;;;;;;5035429;28;20028;-65
2021/12/25 03:38:56;;;;;;;18.45;9.93;;;;;;;;;;5049892;28;20029;-63
2021/12/25 03:41:41;;;;;;;8.93;6.20;;;;;;;;;;5047501;28;20470;-66
2021/12/25 03:44:28;;;;;;;16.27;8.80;;;;;;;;;;5035188;28;20037;-66
2021/12/25 03:47:25;;;;;;;10.60;6.50;;;;;;;;;;5020893;28;20025;-67
2021/12/25 03:53:25;;;;;;;20.08;10.10;;;;;;;;;;5045308;28;20495;-67
2021/12/25 03:59:15;;;;;;;9.98;6.03;;;;;;;;;;5035730;28;20354;-64
2021/12/25 04:02:07;;;;;;;11.98;7.13;;;;;;;;;;5048447;28;20203;-68
2021/12/25 04:04:52;;;;;;;16.30;9.50;;;;;;;;;;5043953;28;20039;-68
2021/12/25 04:07:59;;;;;;;14.23;5.68;;;;;;;;;;5032799;28;20021;-68
2021/12/25 04:10:45;;;;;;;13.55;8.15;;;;;;;;;;5054113;28;20045;-70
2021/12/25 04:13:32;;;;;;;18.05;9.60;;;;;;;;;;5045662;28;20393;-69
2021/12/25 04:16:17;;;;;;;19.85;10.43;;;;;;;;;;5046407;28;20032;-67
2021/12/25 04:19:03;;;;;;;9.27;6.00;;;;;;;;;;5035775;28;20032;-66
2021/12/25 04:21:55;;;;;;;10.05;6.88;;;;;;;;;;5020774;28;20108;-63
2021/12/25 04:24:44;;;;;;;15.00;7.95;;;;;;;;;;5034850;28;20506;-64
2021/12/25 04:27:29;;;;;;;17.52;10.00;;;;;;;;;;5047839;28;20509;-67
2021/12/25 04:30:27;;;;;;;15.18;7.93;;;;;;;;;;5034844;28;20171;-66
2021/12/25 05:06:12;;;;;;;12.98;6.85;;;;;;;;;;5028816;28;20034;-66
2021/12/25 05:08:57;;;;;;;10.98;5.25;;;;;;;;;;5022470;28;20042;-66
2021/12/25 05:11:43;;;;;;;11.13;5.93;;;;;;;;;;5059310;28;20041;-64
2021/12/25 05:14:28;;;;;;;8.82;5.68;;;;;;;;;;5021271;28;20241;-61
2021/12/25 05:17:14;;;;;;;13.68;6.05;;;;;;;;;;5034556;28;20025;-64
2021/12/25 05:19:59;;;;;;;10.07;5.38;;;;;;;;;;5043461;28;20061;-63
2021/12/25 05:22:44;;;;;;;8.05;4.40;;;;;;;;;;5049011;28;20032;-61
2021/12/25 05:25:31;;;;;;;7.80;4.20;;;;;;;;;;5037883;28;20067;-62
2021/12/25 05:28:24;;;;;;;7.72;3.70;;;;;;;;;;5051839;28;20369;-62
2021/12/25 05:31:10;;;;;;;10.15;4.47;;;;;;;;;;5034450;28;20037;-69
2021/12/25 05:33:56;;;;;;;8.60;3.92;;;;;;;;;;5033242;28;20033;-68
2021/12/25 05:36:41;;;;;;;10.48;4.43;;;;;;;;;;5020038;28;20515;-67
2021/12/25 05:39:27;;;;;;;5.43;3.55;;;;;;;;;;5050750;28;20029;-66
2021/12/25 05:42:12;;;;;;;8.25;5.10;;;;;;;;;;5050799;28;20530;-70
2021/12/25 05:44:57;;;;;;;7.93;4.82;;;;;;;;;;5046723;28;20025;-69
2021/12/25 05:47:42;;;;;;;7.85;4.80;;;;;;;;;;5048253;28;20056;-66
2021/12/25 05:50:28;;;;;;;8.35;4.60;;;;;;;;;;5032250;28;20051;-61
2021/12/25 05:53:13;;;;;;;9.73;4.82;;;;;;;;;;5025234;28;20036;-66
2021/12/25 05:55:58;;;;;;;11.13;4.65;;;;;;;;;;5032849;28;20163;-68
2021/12/25 05:58:44;;;;;;;10.48;4.78;;;;;;;;;;5033448;28;20071;-69
2021/12/25 06:01:30;;;;;;;9.45;5.38;;;;;;;;;;5032588;28;20495;-68
2021/12/25 06:04:15;;;;;;;12.48;5.93;;;;;;;;;;5033790;28;20031;-69
2021/12/25 06:07:01;;;;;;;11.52;5.55;;;;;;;;;;5033015;28;20025;-65
2021/12/25 06:09:47;;;;;;;7.63;4.85;;;;;;;;;;5009681;28;20043;-61
2021/12/25 06:12:32;;;;;;;10.80;6.22;;;;;;;;;;5055292;28;20025;-62
2021/12/25 06:15:19;;;;;;;8.93;5.30;;;;;;;;;;5033143;28;20029;-62
2021/12/25 06:18:05;;;;;;;10.98;6.50;;;;;;;;;;5046474;28;20033;-65
2021/12/25 06:20:50;;;;;;;15.35;8.60;;;;;;;;;;5032654;28;20071;-64
2021/12/25 06:23:35;;;;;;;12.25;6.68;;;;;;;;;;5019849;28;20380;-62
2021/12/25 06:26:20;;;;;;;15.60;8.52;;;;;;;;;;5052039;28;20079;-67
2021/12/25 06:29:06;;;;;;;12.30;6.78;;;;;;;;;;5025120;28;20357;-63
2021/12/25 06:31:52;;;;;;;14.20;8.45;;;;;;;;;;5043756;28;20029;-64
2021/12/25 06:34:38;;;;;;;12.52;8.50;;;;;;;;;;5021242;28;20033;-63
2021/12/25 06:37:24;;;;;;;15.10;7.03;;;;;;;;;;5027245;28;20036;-62
2021/12/25 06:40:11;;;;;;;14.88;8.40;;;;;;;;;;5036871;28;20460;-64
2021/12/25 06:42:56;;;;;;;14.75;8.95;;;;;;;;;;5024052;28;20029;-64
2021/12/25 06:45:41;;;;;;;14.23;9.07;;;;;;;;;;5042226;28;20021;-67
2021/12/25 06:48:27;;;;;;;15.73;8.95;;;;;;;;;;5035781;28;20037;-64
2021/12/25 06:51:13;;;;;;;15.02;7.80;;;;;;;;;;5036977;28;20115;-67
2021/12/25 06:53:58;;;;;;;12.77;7.80;;;;;;;;;;5035536;28;20047;-64
2021/12/25 06:56:44;;;;;;;12.57;6.63;;;;;;;;;;5037322;28;20028;-65
2021/12/25 06:59:30;;;;;;;9.35;5.82;;;;;;;;;;5036790;28;20044;-68
2021/12/25 07:02:16;;;;;;;12.02;7.63;;;;;;;;;;5035523;28;20036;-61
2021/12/25 07:05:01;;;;;;;12.75;7.28;;;;;;;;;;5037084;28;20400;-70
2021/12/25 07:07:46;;;;;;;12.75;7.85;;;;;;;;;;5035459;28;20443;-68
2021/12/25 07:10:31;;;;;;;15.32;9.02;;;;;;;;;;5045006;28;20036;-67
2021/12/25 07:13:18;;;;;;;15.63;9.07;;;;;;;;;;5034571;28;20021;-67
2021/12/25 07:16:04;;;;;;;13.55;8.32;;;;;;;;;;5053257;28;20025;-67
2021/12/25 07:18:49;;;;;;;16.90;9.77;;;;;;;;;;5035910;28;20112;-68
2021/12/25 07:21:34;;;;;;;10.07;6.43;;;;;;;;;;5050523;28;20029;-64
2021/12/25 07:24:19;;;;;;;11.70;7.53;;;;;;;;;;5035721;28;20408;-60
2021/12/25 07:27:05;;;;;;;14.43;8.50;;;;;;;;;;5034486;28;20037;-63
2021/12/25 07:29:50;;;;;;;11.40;6.95;;;;;;;;;;5034636;28;20041;-62
2021/12/25 07:32:36;;;;;;;10.93;5.80;;;;;;;;;;5036577;28;20075;-61
2021/12/25 07:35:22;;;;;;;15.95;7.07;;;;;;;;;;5034909;28;20033;-61
2021/12/25 07:38:07;;;;;;;8.40;5.68;;;;;;;;;;5036255;28;20101;-60
2021/12/25 07:40:52;;;;;;;14.38;8.65;;;;;;;;;;5035373;28;20025;-65
2021/12/25 07:43:38;;;;;;;14.98;7.88;;;;;;;;;;5033374;28;20025;-68
2021/12/25 07:46:23;;;;;;;15.65;8.40;;;;;;;;;;5015656;28;20469;-67
2021/12/25 07:49:15;;;;;;;12.55;8.20;;;;;;;;;;5042110;28;20585;-67
2021/12/25 07:52:00;;;;;;;15.75;8.57;;;;;;;;;;5049924;28;20112;-68
2021/12/25 07:54:45;;;;;;;15.98;7.97;;;;;;;;;;5034745;28;20120;-67
2021/12/25 07:57:31;;;;;;;12.25;6.72;;;;;;;;;;5049315;28;20071;-62
2021/12/25 08:00:17;;;;;;;9.32;5.90;;;;;;;;;;5048523;28;20553;-63
2021/12/25 08:03:02;;;;;;;15.30;9.18;;;;;;;;;;5036247;28;20200;-62
2021/12/25 08:05:48;;;;;;;14.15;7.80;;;;;;;;;;5034380;28;20029;-63
2021/12/25 08:08:33;;;;;;;12.65;7.80;;;;;;;;;;5035817;28;20020;-63
2021/12/25 08:11:18;;;;;;;15.05;9.15;;;;;;;;;;5034872;28;20029;-63
2021/12/25 08:14:04;;;;;;;16.65;9.40;;;;;;;;;;5054541;28;20479;-62
2021/12/25 08:16:49;;;;;;;9.43;5.60;;;;;;;;;;5035135;28;20044;-68
2021/12/25 08:19:34;;;;;;;15.15;8.60;;;;;;;;;;5037344;28;20082;-63
2021/12/25 08:22:19;;;;;;;10.85;6.00;;;;;;;;;;5036781;28;20025;-64
2021/12/25 08:25:05;;;;;;;14.43;7.35;;;;;;;;;;5036523;28;20028;-64
2021/12/25 08:27:51;;;;;;;17.95;8.32;;;;;;;;;;5041169;28;20024;-62
2021/12/25 08:30:36;;;;;;;13.23;7.60;;;;;;;;;;5033886;28;20040;-62
2021/12/25 08:33:22;;;;;;;13.75;8.38;;;;;;;;;;5049129;28;20412;-65
2021/12/25 08:36:08;;;;;;;11.88;7.32;;;;;;;;;;5034260;28;20041;-64
2021/12/25 08:38:53;;;;;;;12.38;8.00;;;;;;;;;;5048508;28;20021;-67
2021/12/25 08:41:38;;;;;;;12.35;7.03;;;;;;;;;;5030022;28;20492;-67
2021/12/25 08:47:36;;;;;;;14.52;8.57;;;;;;;;;;5011546;28;20082;-66
2021/12/25 08:50:21;;;;;;;17.40;9.32;;;;;;;;;;5034541;28;20028;-67
2021/12/25 08:53:06;;;;;;;13.57;8.15;;;;;;;;;;5055943;28;20055;-66
2021/12/25 08:55:54;;;;;;;14.43;8.25;;;;;;;;;;5034609;28;20392;-68
2021/12/25 08:58:39;;;;;;;14.98;8.25;;;;;;;;;;5032772;28;20029;-68
2021/12/25 09:01:25;;;;;;;12.27;6.35;;;;;;;;;;5034610;28;20452;-67
2021/12/25 09:04:10;;;;;;;17.50;8.77;;;;;;;;;;5034405;28;20082;-67
2021/12/25 09:06:55;;;;;;;14.40;7.90;;;;;;;;;;5022856;28;20030;-67
2021/12/25 09:09:41;;;;;;;17.13;10.32;;;;;;;;;;5049430;28;20029;-67
2021/12/25 09:12:28;;;;;;;12.88;7.93;;;;;;;;;;5036766;28;20084;-64
2021/12/25 09:15:13;;;;;;;11.95;6.75;;;;;;;;;;5032471;28;20159;-66
2021/12/25 09:17:59;;;;;;;9.90;6.75;;;;;;;;;;5032883;28;20033;-64
2021/12/25 09:20:44;;;;;;;13.68;7.90;;;;;;;;;;5034559;28;20025;-65
2021/12/25 09:23:29;;;;;;;13.88;8.57;;;;;;;;;;5036865;28;20041;-68
2021/12/25 09:26:14;;;;;;;14.68;8.98;;;;;;;;;;5062470;28;20499;-65
2021/12/25 09:29:00;;;;;;;16.42;9.48;;;;;;;;;;5011064;28;20032;-66
2021/12/25 09:31:45;;;;;;;17.70;9.88;;;;;;;;;;5047667;28;20037;-65
2021/12/25 09:34:31;;;;;;;22.25;12.63;;;;;;;;;;5046778;28;20611;-66
2021/12/25 09:37:16;;;;;;;16.48;11.13;;;;;;;;;;5020542;28;20492;-65
2021/12/25 09:40:03;;;;;;;22.65;12.95;;;;;;;;;;5021701;28;20045;-66
2021/12/25 09:42:48;;;;;;;20.67;11.32;;;;;;;;;;5024279;28;20033;-65
2021/12/25 09:45:34;;;;;;;16.40;10.05;;;;;;;;;;5046989;28;20025;-66
2021/12/25 09:48:19;;;;;;;17.85;9.57;;;;;;;;;;5033704;28;20033;-62
2021/12/25 09:51:04;;;;;;;27.95;14.93;;;;;;;;;;5034114;28;20051;-64
2021/12/25 09:54:02;;;;;;;16.80;10.82;;;;;;;;;;5032244;28;20040;-66
2021/12/25 09:56:48;;;;;;;17.02;9.88;;;;;;;;;;5042385;28;20032;-66
2021/12/25 09:59:33;;;;;;;17.60;9.65;;;;;;;;;;5032480;28;20545;-66
2021/12/25 10:02:19;;;;;;;15.15;8.73;;;;;;;;;;5047490;28;20028;-65
2021/12/25 10:05:05;;;;;;;15.80;9.25;;;;;;;;;;5032850;28;20358;-66
2021/12/25 10:08:01;;;;;;;17.95;10.30;;;;;;;;;;5047762;28;20021;-64
2021/12/25 10:10:51;;;;;;;18.13;9.95;;;;;;;;;;5043299;28;20102;-63
2021/12/25 10:13:39;;;;;;;14.35;8.80;;;;;;;;;;5042306;28;20017;-63
2021/12/25 10:16:24;;;;;;;15.00;8.52;;;;;;;;;;5036504;28;20072;-63
2021/12/25 10:19:14;;;;;;;10.13;6.53;;;;;;;;;;5037538;28;20021;-63
2021/12/25 10:22:06;;;;;;;9.50;5.10;;;;;;;;;;5035641;28;20025;-63
2021/12/25 10:25:10;;;;;;;4.30;2.67;;;;;;;;;;5035242;28;20495;-66
2021/12/25 10:27:56;;;;;;;4.97;3.28;;;;;;;;;;5056701;28;20029;-65
2021/12/25 10:30:58;;;;;;;5.78;3.35;;;;;;;;;;5028748;28;20028;-65
2021/12/25 10:33:53;;;;;;;4.55;1.92;;;;;;;;;;5040839;28;20053;-64
2021/12/25 10:36:38;;;;;;;4.43;2.08;;;;;;;;;;5031188;28;20487;-63
2021/12/25 10:39:25;;;;;;;3.97;2.22;;;;;;;;;;5044291;28;20057;-63
2021/12/25 10:42:19;;;;;;;8.00;3.00;;;;;;;;;;5031660;28;20477;-63
2021/12/25 10:45:12;;;;;;;4.30;2.15;;;;;;;;;;5048513;28;20037;-68
2021/12/25 10:48:05;;;;;;;3.70;2.50;;;;;;;;;;5049802;28;20464;-61
2021/12/25 10:50:51;;;;;;;4.05;2.03;;;;;;;;;;5036668;28;20036;-61
2021/12/25 10:53:42;;;;;;;3.63;1.77;;;;;;;;;;5036985;28;20086;-61
2021/12/25 10:56:38;;;;;;;2.97;1.75;;;;;;;;;;5035847;28;20040;-62
2021/12/25 10:59:23;;;;;;;3.13;2.00;;;;;;;;;;5039466;28;20071;-61
2021/12/25 11:02:09;;;;;;;3.72;1.92;;;;;;;;;;5048030;28;20033;-66
2021/12/25 11:04:54;;;;;;;2.33;1.85;;;;;;;;;;5036576;28;20133;-65
2021/12/25 11:07:39;;;;;;;3.75;1.90;;;;;;;;;;5035575;28;20021;-65
2021/12/25 11:10:24;;;;;;;4.10;1.98;;;;;;;;;;5043533;28;20052;-65
2021/12/25 11:13:19;;;;;;;3.65;1.88;;;;;;;;;;5028540;28;20100;-62
2021/12/25 11:16:22;;;;;;;3.78;1.40;;;;;;;;;;5050055;28;20037;-64
2021/12/25 11:19:16;;;;;;;3.35;1.48;;;;;;;;;;5035422;28;20036;-63
2021/12/25 11:22:01;;;;;;;2.03;1.30;;;;;;;;;;5045738;28;20353;-67
2021/12/25 11:24:48;;;;;;;2.67;1.40;;;;;;;;;;5017717;28;20052;-62
2021/12/25 11:27:34;;;;;;;3.50;1.60;;;;;;;;;;5044813;28;20036;-60
2021/12/25 11:30:20;;;;;;;3.50;1.92;;;;;;;;;;5049694;28;20067;-63
2021/12/25 11:33:05;;;;;;;3.45;1.73;;;;;;;;;;5033463;28;20069;-61
2021/12/25 11:35:51;;;;;;;6.05;1.83;;;;;;;;;;5038659;28;20024;-61
2021/12/25 11:38:36;;;;;;;4.47;1.80;;;;;;;;;;5031220;28;20526;-63
2021/12/25 11:41:26;;;;;;;2.22;1.40;;;;;;;;;;5020062;28;20044;-61
2021/12/25 11:44:32;;;;;;;5.20;1.75;;;;;;;;;;5027956;28;20029;-61
2021/12/25 11:47:26;;;;;;;2.55;1.58;;;;;;;;;;5029900;28;20379;-62
2021/12/25 11:50:16;;;;;;;4.03;1.60;;;;;;;;;;5034695;28;20037;-61
2021/12/25 11:53:03;;;;;;;;;;;;;;;;;;5036169;28;20071;-62
2021/12/25 11:59:09;;;;;;;4.68;2.20;;;;;;;;;;5029294;28;20029;-64
2021/12/25 12:02:02;;;;;;;1.70;1.40;;;;;;;;;;5027987;28;20371;-68
2021/12/25 12:05:07;;;;;;;3.60;1.38;;;;;;;;;;5024083;28;20021;-68
2021/12/25 12:08:07;;;;;;;3.38;1.48;;;;;;;;;;5020673;28;20534;-68
2021/12/25 12:10:55;;;;;;;;;;;;;;;;;;5040994;28;20043;-67
2021/12/25 12:13:40;;;;;;;2.03;1.20;;;;;;;;;;5026497;28;19975;-67
2021/12/25 12:16:36;;;;;;;4.05;1.65;;;;;;;;;;5034018;28;20025;-68
2021/12/25 12:19:36;;;;;;;2.45;1.50;;;;;;;;;;5034670;28;20036;-70
2021/12/25 12:22:38;;;;;;;5.60;1.50;;;;;;;;;;5041669;28;20021;-69
2021/12/25 12:28:13;;;;;;;;;;;;;;;;;;5038056;28;20025;-67
2021/12/25 12:30:58;;;;;;;4.13;1.25;;;;;;;;;;5024735;28;19917;-67
2021/12/25 12:33:44;;;;;;;3.92;1.15;;;;;;;;;;5048276;28;20491;-64
2021/12/25 12:36:29;;;;;;;4.63;1.30;;;;;;;;;;5040482;28;20119;-66
2021/12/25 12:39:16;;;;;;;2.28;1.00;;;;;;;;;;5048906;28;20480;-64
2021/12/25 12:42:06;;;;;;;1.83;1.20;;;;;;;;;;5033285;28;20463;-63
2021/12/25 12:45:06;;;;;;;4.05;1.25;;;;;;;;;;5022481;28;20531;-64
2021/12/25 12:48:12;;;;;;;3.40;1.30;;;;;;;;;;5033625;28;20032;-64
2021/12/25 12:50:58;;;;;;;2.95;1.35;;;;;;;;;;5033401;28;20166;-64
2021/12/25 12:53:43;;;;;;;3.70;1.80;;;;;;;;;;5034651;28;20552;-64
2021/12/25 12:56:29;;;;;;;15.30;5.90;;;;;;;;;;5033836;28;20044;-67
2021/12/25 12:59:14;;;;;;;7.95;2.80;;;;;;;;;;5016232;28;20017;-71
2021/12/25 13:02:02;;;;;;;6.18;2.90;;;;;;;;;;5040476;28;20033;-68
2021/12/25 13:04:49;;;;;;;5.60;2.83;;;;;;;;;;5048128;28;20032;-68
2021/12/25 13:07:37;;;;;;;3.15;1.80;;;;;;;;;;5036495;28;20383;-68
2021/12/25 13:10:34;;;;;;;2.33;1.40;;;;;;;;;;5044404;28;20209;-62
2021/12/25 13:13:19;;;;;;;2.50;1.60;;;;;;;;;;5042976;28;20525;-66
2021/12/25 13:16:09;;;;;;;5.22;1.75;;;;;;;;;;5048524;28;20033;-64
2021/12/25 13:18:55;;;;;;;3.83;1.83;;;;;;;;;;5046826;28;20040;-67
2021/12/25 13:21:40;;;;;;;3.92;1.63;;;;;;;;;;5034114;28;20112;-65
2021/12/25 13:24:26;;;;;;;6.22;2.17;;;;;;;;;;5034934;28;20075;-65
2021/12/25 13:27:18;;;;;;;3.15;1.60;;;;;;;;;;5044116;28;20032;-65
2021/12/25 13:30:08;;;;;;;6.45;1.88;;;;;;;;;;5044958;28;20041;-65
2021/12/25 13:32:54;;;;;;;5.85;2.08;;;;;;;;;;5024706;28;20357;-65
2021/12/25 13:35:40;;;;;;;4.40;1.52;;;;;;;;;;5048037;28;20033;-63
2021/12/25 13:38:25;;;;;;;2.65;1.92;;;;;;;;;;5032815;28;20025;-64
2021/12/25 13:41:11;;;;;;;4.25;1.75;;;;;;;;;;5041825;28;20530;-63
2021/12/25 13:44:03;;;;;;;3.92;2.58;;;;;;;;;;5037835;28;20017;-67
2021/12/25 13:46:51;;;;;;;3.90;2.30;;;;;;;;;;5019821;28;20075;-64
2021/12/25 13:49:40;;;;;;;5.68;3.30;;;;;;;;;;5041629;28;20103;-68
2021/12/25 13:52:51;;;;;;;5.50;3.00;;;;;;;;;;5033774;28;20048;-61
2021/12/25 13:55:36;;;;;;;6.85;3.67;;;;;;;;;;5033782;28;20473;-60
2021/12/25 13:58:26;;;;;;;6.60;3.35;;;;;;;;;;5032742;28;20029;-62
2021/12/25 14:01:14;;;;;;;5.95;3.63;;;;;;;;;;5035717;28;20079;-62
2021/12/25 14:04:07;;;;;;;5.72;3.30;;;;;;;;;;5022056;28;20072;-61
2021/12/25 14:06:52;;;;;;;4.78;3.13;;;;;;;;;;5033650;28;20392;-63
2021/12/25 14:09:37;;;;;;;7.90;4.35;;;;;;;;;;5021545;28;20029;-64
2021/12/25 14:12:23;;;;;;;7.88;3.88;;;;;;;;;;5032095;28;20029;-63
2021/12/25 14:15:09;;;;;;;5.60;3.55;;;;;;;;;;5029211;28;20033;-67
2021/12/25 14:17:55;;;;;;;6.25;3.97;;;;;;;;;;5019131;28;20032;-65
2021/12/25 14:20:41;;;;;;;7.60;4.35;;;;;;;;;;5032138;28;20157;-63
2021/12/25 14:23:26;;;;;;;7.00;4.20;;;;;;;;;;5032247;28;20119;-60
2021/12/25 14:26:18;;;;;;;9.07;4.60;;;;;;;;;;5041016;28;20040;-60
2021/12/25 14:29:17;;;;;;;8.50;4.10;;;;;;;;;;5035873;28;20032;-67
2021/12/25 14:32:02;;;;;;;8.90;4.40;;;;;;;;;;5019093;28;20480;-66
2021/12/25 14:34:48;;;;;;;9.45;4.85;;;;;;;;;;5032483;28;20041;-68
2021/12/25 14:37:35;;;;;;;10.30;5.85;;;;;;;;;;5033442;28;20036;-69
2021/12/25 14:40:21;;;;;;;11.63;5.65;;;;;;;;;;5030272;28;20098;-69
2021/12/25 14:43:07;;;;;;;9.52;5.00;;;;;;;;;;5035097;28;20025;-63
2021/12/25 14:45:53;;;;;;;8.23;5.70;;;;;;;;;;5044972;28;20033;-63
2021/12/25 14:48:40;;;;;;;11.32;6.25;;;;;;;;;;5042709;28;20040;-61
2021/12/25 14:51:25;;;;;;;7.40;4.45;;;;;;;;;;5031926;28;20044;-61
2021/12/25 14:54:10;;;;;;;8.02;5.32;;;;;;;;;;5033186;28;20021;-64
2021/12/25 14:56:58;;;;;;;10.48;5.82;;;;;;;;;;5033384;28;20086;-62
2021/12/25 14:59:44;;;;;;;9.68;5.68;;;;;;;;;;5036885;28;20036;-60
2021/12/25 15:02:29;;;;;;;8.88;5.93;;;;;;;;;;5049245;28;20062;-71
2021/12/25 15:05:14;;;;;;;11.07;6.20;;;;;;;;;;5037131;28;20037;-66
2021/12/25 15:08:00;;;;;;;9.73;5.80;;;;;;;;;;5040866;28;20067;-65
2021/12/25 15:10:46;;;;;;;9.43;5.72;;;;;;;;;;5053134;28;20036;-65
2021/12/25 15:13:31;;;;;;;12.15;5.82;;;;;;;;;;5048800;28;20033;-64
2021/12/25 15:16:16;;;;;;;11.55;6.80;;;;;;;;;;5028515;28;20021;-67
2021/12/25 15:19:02;;;;;;;13.23;7.15;;;;;;;;;;5022833;28;20480;-62
2021/12/25 15:21:47;;;;;;;12.32;6.18;;;;;;;;;;5037257;28;20365;-64
2021/12/25 15:24:33;;;;;;;12.55;7.43;;;;;;;;;;5050182;28;20496;-62
2021/12/25 15:27:23;;;;;;;9.60;6.57;;;;;;;;;;5044354;28;20102;-63
2021/12/25 15:30:18;;;;;;;12.45;10.05;;;;;;;;;;5035476;28;20043;-65
2021/12/25 15:33:08;;;;;;;16.20;10.95;;;;;;;;;;5034699;28;20107;-63
2021/12/25 15:35:54;;;;;;;17.85;12.38;;;;;;;;;;5029932;28;20484;-64
2021/12/25 15:38:39;;;;;;;16.77;10.70;;;;;;;;;;5028707;28;20030;-66
2021/12/25 15:41:24;;;;;;;15.60;12.02;;;;;;;;;;5020200;28;20029;-65
2021/12/25 15:44:10;;;;;;;17.10;12.85;;;;;;;;;;5034770;28;20501;-65
2021/12/25 15:46:55;;;;;;;17.27;13.23;;;;;;;;;;5022119;28;20068;-64
2021/12/25 15:49:40;;;;;;;15.63;11.82;;;;;;;;;;5040494;28;20476;-66
2021/12/25 15:52:26;;;;;;;14.38;11.45;;;;;;;;;;5035090;28;20048;-64
2021/12/25 15:55:11;;;;;;;15.90;12.50;;;;;;;;;;5035621;28;20033;-66
2021/12/25 15:58:04;;;;;;;16.27;13.40;;;;;;;;;;5022682;28;20055;-65
2021/12/25 16:00:50;;;;;;;18.10;13.50;;;;;;;;;;5029467;28;20484;-63
2021/12/25 16:03:35;;;;;;;21.77;14.15;;;;;;;;;;5040339;28;20070;-61
2021/12/25 16:06:20;;;;;;;21.20;15.85;;;;;;;;;;5049791;28;20060;-61
2021/12/25 16:09:07;;;;;;;20.75;15.50;;;;;;;;;;5033647;28;20032;-61
2021/12/25 16:11:53;;;;;;;19.73;16.20;;;;;;;;;;5044067;28;20175;-61
2021/12/25 16:14:38;;;;;;;18.85;14.30;;;;;;;;;;5033539;28;20036;-64
2021/12/25 16:17:23;;;;;;;20.27;14.20;;;;;;;;;;5035992;28;20044;-64
2021/12/25 16:20:09;;;;;;;16.88;12.82;;;;;;;;;;5045955;28;20028;-65
2021/12/25 16:22:55;;;;;;;16.75;13.18;;;;;;;;;;5050667;28;20387;-64
2021/12/25 16:25:40;;;;;;;20.17;15.00;;;;;;;;;;5040524;28;20046;-61
2021/12/25 16:28:25;;;;;;;20.73;14.57;;;;;;;;;;5020620;28;20032;-63
2021/12/25 16:31:11;;;;;;;18.75;12.63;;;;;;;;;;5030808;28;20037;-62
2021/12/25 16:33:56;;;;;;;19.90;13.73;;;;;;;;;;5048712;28;20060;-64
2021/12/25 16:36:41;;;;;;;19.23;13.95;;;;;;;;;;5047570;28;20048;-63
2021/12/25 16:39:27;;;;;;;20.50;14.63;;;;;;;;;;5021394;28;20044;-62
2021/12/25 16:42:12;;;;;;;19.20;12.10;;;;;;;;;;5046673;28;20025;-62
2021/12/25 16:44:57;;;;;;;21.73;14.93;;;;;;;;;;5033346;28;20033;-61
2021/12/25 16:47:42;;;;;;;20.48;13.45;;;;;;;;;;5036457;28;20108;-64
2021/12/25 16:50:28;;;;;;;20.33;14.68;;;;;;;;;;5033156;28;20067;-66
2021/12/25 16:53:16;;;;;;;21.05;13.77;;;;;;;;;;5042910;28;20025;-67
2021/12/25 16:56:01;;;;;;;18.42;13.45;;;;;;;;;;5032487;28;20488;-66
2021/12/25 16:58:47;;;;;;;14.52;11.20;;;;;;;;;;5033870;28;20036;-65
2021/12/25 17:01:32;;;;;;;16.52;12.77;;;;;;;;;;5033336;28;20071;-65
2021/12/25 17:04:17;;;;;;;16.63;11.93;;;;;;;;;;5034044;28;20422;-65
2021/12/25 17:07:03;;;;;;;16.80;11.70;;;;;;;;;;5021878;28;20029;-64
2021/12/25 17:09:50;;;;;;;13.80;11.05;;;;;;;;;;5035038;28;20009;-63
2021/12/25 17:12:36;;;;;;;14.68;10.95;;;;;;;;;;5032634;28;20044;-62
2021/12/25 17:15:22;;;;;;;17.13;12.30;;;;;;;;;;5033999;28;20025;-63
2021/12/25 17:18:08;;;;;;;15.23;12.18;;;;;;;;;;5032335;28;20556;-61
2021/12/25 17:20:53;;;;;;;13.52;10.60;;;;;;;;;;5033243;28;20068;-64
2021/12/25 17:23:39;;;;;;;14.68;10.20;;;;;;;;;;5037824;28;20027;-62
2021/12/25 17:26:24;;;;;;;18.55;12.55;;;;;;;;;;5035587;28;20029;-61
2021/12/25 17:29:09;;;;;;;16.63;12.52;;;;;;;;;;5023442;28;20033;-67
2021/12/25 17:31:54;;;;;;;22.38;11.18;;;;;;;;;;5032710;28;20036;-65
2021/12/25 17:34:40;;;;;;;14.68;10.35;;;;;;;;;;5034198;28;20064;-65
2021/12/25 17:37:25;;;;;;;17.77;13.02;;;;;;;;;;5032867;28;20041;-66
2021/12/25 17:40:13;;;;;;;17.63;12.30;;;;;;;;;;5033840;28;20106;-64